Main page
METAR-TAF:

METAR-TAF

Airports :

Mayor General FAP Armando Revoredo Iglesias Airport

Cajamarca, Peru

latitude: 07-08S, longitude: 078-28W, elevation: 2620 m

Current weather observation

The report was made 25 minutes ago, at 13:00 UTC
Wind 1 kt from variable directions
Temperature 9°C
Humidity 43%
Pressure 1031 hPa
Visibility 10 km or more
no clouds below 1500 m and no cumulonimbus

METAR: SPJR 171300Z VRB01KT CAVOK 09/M03 Q1031 RMK PP000

Time: 08:25 (13:25 UTC)

Forecast

The report was made 2 hours and 25 minutes ago, at 11:00 UTC
Forecast valid from 17 at 12 UTC to 18 at 12 UTC
Wind 2 kt from variable directions
Visibility 10 km or more
Scattered clouds at a height of 4000 ft
Becoming
from 17 at 15 UTC to 17 at 17 UTC
Wind 12 kt from the Northeast
Becoming
from 18 at 01 UTC to 18 at 04 UTC
Wind 3 kt from variable directions

TAF: SPJR 171100Z 1712/1812 VRB02KT 9999 SCT040 TX24/1719Z TN02/1811Z BECMG 1715/1717 05012KT BECMG 1801/1804 VRB03KT

Weather observations and forecasts of more than 4000 airports (METAR and TAF reports).

The available stations are represented by yellow and red dots on the map.

Hover mouse over dot to see the name of the station.

Then click to see weather observations and forecasts.

To change the map : click on the green buttons with a black cross to zoom in, on the green button with a dash to zoom out, or on the green arrows for adjacent maps.


METAR-TAF: